Ronnie Rogers — WDD2270 — position and weather

sailwx.info

Track history (hours):
 
Tides and Currents Weather Stations Pressure Air Temp Water Temp Dewpoint Dewpoint Depression Visibility Wind Speed Wind Dir Waves Ship Positions

Ronnie Rogers

Owner: Florida Marine, LLC, Mandeville, LA. More information available from US FCC via Universal Licensing System and Coast Guard Vessel Documentation Center.

Last reported at 2016-Sep-27 00:33 UTC. Time now 2016-Sep-29 20:25 UTC.
Position N 30°04' W 093°24'.

Length 27 m.

Type: Other ship. MMSI: 367113160.

Date/timePositionNaut miles runAvg speedWind from/ knotsBaromVisibWave heightAir tempDewpointWater temp
2016-Sep-27 00:33N 30°04' W 093°24'17 4.2
2016-Sep-26 20:33N 29°56' W 093°06'37 5.3
2016-Sep-26 13:33N 29°53' W 092°24'10 5.1
2016-Sep-26 11:33N 29°48' W 092°13'67 4.7
2016-Sep-25 21:25N 29°36' W 090°58'15 3.9
2016-Sep-25 17:33N 29°36' W 090°41'5 4.9
2016-Sep-25 16:33N 29°35' W 090°36'30 0.6
2016-Sep-23 16:32N 29°57' W 090°14'4 3.9
2016-Sep-23 15:33N 29°57' W 090°09'28 1.9
2016-Sep-23 01:12N 29°33' W 090°25'4 4.9
2016-Sep-23 00:23N 29°34' W 090°29'4 4.8
2016-Sep-22 23:33N 29°34' W 090°34'8 2.8
2016-Sep-22 20:33N 29°34' W 090°43'63 3.7
2016-Sep-22 03:26N 29°51' W 091°53'12 4.2
2016-Sep-22 00:33N 29°48' W 092°06'4 4.2
2016-Sep-21 23:33N 29°47' W 092°11'5 4.8
2016-Sep-21 22:33N 29°49' W 092°16'51 3.9
2016-Sep-21 09:33N 30°00' W 093°14'3 3.1
2016-Sep-21 08:33N 30°03' W 093°16'8 2.5
2016-Sep-21 05:33N 30°04' W 093°24'9 4.3
2016-Sep-21 03:33N 30°04' W 093°34'  
Track history (hours):
 
Tides and Currents Weather Stations Pressure Air Temp Water Temp Dewpoint Dewpoint Depression Visibility Wind Speed Wind Dir Waves Ship Positions

Ronnie Rogers

Owner: Florida Marine, LLC, Mandeville, LA. More information available from US FCC via Universal Licensing System and Coast Guard Vessel Documentation Center.

Last reported at 2016-Sep-27 00:33 UTC. Time now 2016-Sep-29 20:25 UTC.
Position N 30°04' W 093°24'.

Length 27 m.

Type: Other ship. MMSI: 367113160.

Date/timePositionNaut miles runAvg speedWind from/ knotsBaromVisibWave heightAir tempDewpointWater temp
2016-Sep-27 00:33N 30°04' W 093°24'17 4.2
2016-Sep-26 20:33N 29°56' W 093°06'37 5.3
2016-Sep-26 13:33N 29°53' W 092°24'10 5.1
2016-Sep-26 11:33N 29°48' W 092°13'67 4.7
2016-Sep-25 21:25N 29°36' W 090°58'15 3.9
2016-Sep-25 17:33N 29°36' W 090°41'5 4.9
2016-Sep-25 16:33N 29°35' W 090°36'30 0.6
2016-Sep-23 16:32N 29°57' W 090°14'4 3.9
2016-Sep-23 15:33N 29°57' W 090°09'28 1.9
2016-Sep-23 01:12N 29°33' W 090°25'4 4.9
2016-Sep-23 00:23N 29°34' W 090°29'4 4.8
2016-Sep-22 23:33N 29°34' W 090°34'8 2.8
2016-Sep-22 20:33N 29°34' W 090°43'63 3.7
2016-Sep-22 03:26N 29°51' W 091°53'12 4.2
2016-Sep-22 00:33N 29°48' W 092°06'4 4.2
2016-Sep-21 23:33N 29°47' W 092°11'5 4.8
2016-Sep-21 22:33N 29°49' W 092°16'51 3.9
2016-Sep-21 09:33N 30°00' W 093°14'3 3.1
2016-Sep-21 08:33N 30°03' W 093°16'8 2.5
2016-Sep-21 05:33N 30°04' W 093°24'9 4.3
2016-Sep-21 03:33N 30°04' W 093°34'  

Dump ship's entire track history